createdAt,value
2024-04-06T00:00:29.603Z,16.86
2024-04-06T00:02:59.802Z,16.82
2024-04-06T00:05:30.017Z,16.76
2024-04-06T00:08:09.573Z,16.72
2024-04-06T00:10:44.058Z,16.69
2024-04-06T00:13:14.918Z,16.68
2024-04-06T00:15:45.346Z,16.65
2024-04-06T00:18:15.517Z,16.59
2024-04-06T00:20:45.686Z,16.56
2024-04-06T00:23:15.940Z,16.56
2024-04-06T00:25:46.134Z,16.56
2024-04-06T00:28:16.333Z,16.55
2024-04-06T00:30:46.452Z,16.51
2024-04-06T00:33:16.641Z,16.49
2024-04-06T00:35:46.840Z,16.46
2024-04-06T00:38:16.935Z,16.42
2024-04-06T00:40:47.250Z,16.35
2024-04-06T00:43:17.455Z,16.32
2024-04-06T00:45:48.010Z,16.29
2024-04-06T00:48:18.204Z,16.27
2024-04-06T00:50:48.701Z,16.27
2024-04-06T00:53:18.840Z,16.24
2024-04-06T00:55:49.260Z,16.22
2024-04-06T00:58:20.819Z,16.20
2024-04-06T01:00:51.343Z,16.20
2024-04-06T01:03:21.662Z,16.21
2024-04-06T01:05:52.275Z,16.22
2024-04-06T01:08:22.826Z,16.23
2024-04-06T01:10:53.239Z,16.21
2024-04-06T01:13:23.569Z,16.19
2024-04-06T01:15:54.234Z,16.15
2024-04-06T01:18:24.542Z,16.15
2024-04-06T01:20:58.265Z,16.12
2024-04-06T01:23:28.498Z,16.12
2024-04-06T01:26:00.358Z,16.12
2024-04-06T01:28:31.527Z,16.17
2024-04-06T01:31:01.700Z,16.20
2024-04-06T01:33:32.259Z,16.20
2024-04-06T01:36:02.531Z,16.19
2024-04-06T01:38:32.763Z,16.19
2024-04-06T01:41:02.992Z,16.18
2024-04-06T01:43:33.205Z,16.18
2024-04-06T01:46:03.377Z,16.18
2024-04-06T01:48:33.540Z,16.18
2024-04-06T01:51:04.001Z,16.20
2024-04-06T01:53:34.296Z,16.22
2024-04-06T01:56:04.970Z,16.22
2024-04-06T01:58:35.188Z,16.23
2024-04-06T02:01:05.848Z,16.22
2024-04-06T02:03:36.580Z,16.20
2024-04-06T02:06:09.858Z,16.20
2024-04-06T02:08:40.443Z,16.20
2024-04-06T02:11:10.652Z,16.23
2024-04-06T02:13:41.255Z,16.22
2024-04-06T02:16:11.671Z,16.20
2024-04-06T02:18:43.806Z,16.15
2024-04-06T02:21:13.972Z,16.14
2024-04-06T02:23:44.228Z,16.17
2024-04-06T02:26:14.479Z,16.20
2024-04-06T02:28:44.678Z,16.17
2024-04-06T02:31:15.074Z,16.12
2024-04-06T02:33:45.369Z,16.08
2024-04-06T02:36:15.580Z,16.07
2024-04-06T02:38:45.753Z,16.01
2024-04-06T02:41:15.968Z,15.96
2024-04-06T02:43:46.169Z,15.93
2024-04-06T02:46:16.325Z,15.90
2024-04-06T02:48:48.618Z,15.88
2024-04-06T02:51:19.221Z,15.88
2024-04-06T02:53:50.388Z,15.86
2024-04-06T02:56:20.622Z,15.83
2024-04-06T02:58:50.746Z,15.84
2024-04-06T03:01:21.059Z,15.87
2024-04-06T03:03:51.290Z,15.88
2024-04-06T03:06:21.507Z,15.90
2024-04-06T03:08:51.725Z,15.91
2024-04-06T03:11:21.979Z,15.88
2024-04-06T03:13:52.514Z,15.88
2024-04-06T03:16:23.050Z,15.85
2024-04-06T03:18:53.250Z,15.82
2024-04-06T03:21:23.423Z,15.78
2024-04-06T03:23:53.647Z,15.74
2024-04-06T03:26:24.115Z,15.74
2024-04-06T03:28:54.344Z,15.78
2024-04-06T03:31:24.669Z,15.78
2024-04-06T03:33:55.688Z,15.79
2024-04-06T03:36:27.912Z,15.79
2024-04-06T03:38:58.372Z,15.81
2024-04-06T03:41:28.716Z,15.81
2024-04-06T03:43:59.036Z,15.79
2024-04-06T03:46:31.773Z,15.78
2024-04-06T03:49:01.919Z,15.79
2024-04-06T03:51:32.199Z,15.84
2024-04-06T03:54:02.361Z,15.90
2024-04-06T03:56:32.806Z,15.96
2024-04-06T03:59:03.027Z,15.97
2024-04-06T04:01:33.230Z,15.97
2024-04-06T04:04:03.464Z,15.98
2024-04-06T04:06:33.677Z,16.00
2024-04-06T04:09:03.909Z,16.04
2024-04-06T04:11:34.241Z,16.08
2024-04-06T04:14:04.641Z,16.13
2024-04-06T04:16:35.194Z,16.19
2024-04-06T04:19:05.496Z,16.24
2024-04-06T04:21:35.811Z,16.27
2024-04-06T04:24:06.861Z,16.31
2024-04-06T04:26:37.089Z,16.34
2024-04-06T04:29:07.272Z,16.37
2024-04-06T04:31:37.537Z,16.40
2024-04-06T04:34:07.807Z,16.43
2024-04-06T04:36:38.043Z,16.46
2024-04-06T04:39:08.172Z,16.46
2024-04-06T04:41:38.636Z,16.43
2024-04-06T04:44:24.784Z,16.33
2024-04-06T04:46:59.084Z,16.24
2024-04-06T04:49:29.688Z,16.18
2024-04-06T04:51:59.928Z,16.11
2024-04-06T04:54:30.443Z,16.07
2024-04-06T04:57:00.991Z,16.04
2024-04-06T04:59:31.466Z,15.98
2024-04-06T05:02:01.819Z,15.92
2024-04-06T05:04:32.014Z,15.90
2024-04-06T05:07:02.251Z,15.86
2024-04-06T05:09:32.698Z,15.83
2024-04-06T05:12:03.756Z,15.84
2024-04-06T05:14:34.068Z,15.89
2024-04-06T05:17:04.611Z,15.92
2024-04-06T05:19:35.948Z,15.93
2024-04-06T05:22:07.263Z,15.97
2024-04-06T05:24:37.413Z,15.96
2024-04-06T05:27:08.170Z,15.94
2024-04-06T05:29:38.624Z,15.95
2024-04-06T05:32:09.989Z,16.01
2024-04-06T05:34:40.432Z,16.04
2024-04-06T05:37:10.853Z,16.02
2024-04-06T05:39:41.196Z,16.05
2024-04-06T05:42:11.468Z,16.11
2024-04-06T05:44:41.686Z,16.13
2024-04-06T05:47:12.125Z,16.12
2024-04-06T05:49:42.322Z,16.10
2024-04-06T05:52:12.731Z,16.12
2024-04-06T05:54:43.353Z,16.13
2024-04-06T05:57:13.968Z,16.14
2024-04-06T05:59:44.201Z,16.16
2024-04-06T06:02:14.635Z,16.20
2024-04-06T06:04:47.621Z,16.23
2024-04-06T06:07:18.007Z,16.27
2024-04-06T06:09:48.763Z,16.31
2024-04-06T06:12:20.320Z,16.33
2024-04-06T06:14:51.355Z,16.38
2024-04-06T06:17:22.446Z,16.44
2024-04-06T06:19:52.726Z,16.48
2024-04-06T06:22:23.270Z,16.50
2024-04-06T06:24:53.654Z,16.46
2024-04-06T06:27:23.921Z,16.42
2024-04-06T06:29:54.578Z,16.41
2024-04-06T06:32:25.096Z,16.41
2024-04-06T06:34:55.271Z,16.41
2024-04-06T06:42:32.095Z,16.50
2024-04-06T06:45:06.841Z,16.52
2024-04-06T06:47:37.116Z,16.60
2024-04-06T06:50:09.637Z,16.70
2024-04-06T06:52:39.762Z,16.92
2024-04-06T06:55:10.461Z,17.28
2024-04-06T06:57:41.166Z,17.63
2024-04-06T07:02:46.655Z,18.43
2024-04-06T07:05:17.277Z,18.99
2024-04-06T07:07:56.217Z,19.44
2024-04-06T07:10:26.466Z,19.75
2024-04-06T07:12:57.456Z,19.84
2024-04-06T07:15:27.629Z,19.92
2024-04-06T07:17:58.621Z,19.94
2024-04-06T07:20:29.091Z,19.87
2024-04-06T07:22:59.305Z,19.81
2024-04-06T07:25:29.844Z,19.77
2024-04-06T07:28:00.079Z,19.78
2024-04-06T07:30:30.412Z,19.96
2024-04-06T07:33:00.765Z,20.11
2024-04-06T07:35:31.040Z,20.21
2024-04-06T07:38:01.252Z,20.29
2024-04-06T07:40:31.728Z,20.35
2024-04-06T07:43:03.662Z,20.46
2024-04-06T07:45:34.196Z,20.69
2024-04-06T07:48:04.743Z,21.13
2024-04-06T07:50:35.514Z,21.56
2024-04-06T07:53:06.015Z,21.66
2024-04-06T07:55:36.401Z,21.68
2024-04-06T07:58:06.874Z,21.67
2024-04-06T08:00:38.009Z,21.80
2024-04-06T08:03:09.118Z,22.06
2024-04-06T08:05:39.380Z,22.32
2024-04-06T08:08:10.087Z,22.41
2024-04-06T08:10:43.246Z,22.33
2024-04-06T08:13:15.064Z,22.20
2024-04-06T08:15:46.495Z,22.10
2024-04-06T08:18:16.803Z,21.96
2024-04-06T08:20:48.244Z,21.87
2024-04-06T08:23:19.356Z,22.00
2024-04-06T08:25:53.955Z,22.21
2024-04-06T08:28:24.300Z,22.46
2024-04-06T08:30:54.528Z,22.70
2024-04-06T08:33:24.807Z,22.89
2024-04-06T08:36:02.185Z,23.02
2024-04-06T08:38:32.321Z,23.13
2024-04-06T08:41:11.245Z,23.26
2024-04-06T08:43:46.018Z,23.39
2024-04-06T08:46:18.209Z,23.43
2024-04-06T08:48:50.554Z,23.52
2024-04-06T08:51:24.186Z,23.70
2024-04-06T08:53:54.743Z,23.72
2024-04-06T08:56:25.400Z,23.65
2024-04-06T08:58:55.709Z,23.71
2024-04-06T09:01:25.963Z,23.82
2024-04-06T09:03:56.279Z,23.91
2024-04-06T09:06:26.672Z,23.83
2024-04-06T09:08:56.925Z,23.72
2024-04-06T09:11:27.177Z,23.62
2024-04-06T09:14:03.573Z,23.55
2024-04-06T09:16:34.846Z,23.52
2024-04-06T09:19:05.270Z,23.47
2024-04-06T09:21:36.370Z,23.41
2024-04-06T09:24:07.859Z,23.34
2024-04-06T09:26:38.152Z,23.40
2024-04-06T09:29:08.446Z,23.57
2024-04-06T09:31:48.633Z,23.75
2024-04-06T09:34:18.805Z,23.90
2024-04-06T09:36:54.765Z,24.02
2024-04-06T09:39:25.474Z,24.19
2024-04-06T09:41:56.588Z,24.33
2024-04-06T09:44:28.772Z,24.48
2024-04-06T09:46:59.019Z,24.59
2024-04-06T09:49:30.003Z,24.69
2024-04-06T09:52:01.309Z,24.79
2024-04-06T09:54:32.887Z,24.86
2024-04-06T09:57:03.443Z,24.89
2024-04-06T09:59:33.920Z,24.91
2024-04-06T10:02:05.368Z,24.95
2024-04-06T10:04:39.650Z,24.89
2024-04-06T10:07:09.827Z,24.84
2024-04-06T10:09:40.036Z,24.76
2024-04-06T10:12:12.687Z,24.76
2024-04-06T10:14:49.197Z,24.72
2024-04-06T10:17:19.491Z,24.76
2024-04-06T10:19:50.122Z,24.86
2024-04-06T10:22:27.104Z,24.89
2024-04-06T10:25:03.450Z,24.89
2024-04-06T10:27:40.913Z,24.88
2024-04-06T10:30:12.102Z,24.93
2024-04-06T10:32:42.824Z,24.95
2024-04-06T10:35:13.940Z,25.04
2024-04-06T10:37:44.191Z,25.05
2024-04-06T10:40:15.115Z,25.07
2024-04-06T10:42:45.401Z,25.14
2024-04-06T10:45:17.558Z,25.20
2024-04-06T10:47:47.929Z,25.23
2024-04-06T10:50:18.242Z,25.31
2024-04-06T10:52:49.655Z,25.34
2024-04-06T10:55:21.927Z,25.31
2024-04-06T10:57:52.396Z,25.29
2024-04-06T11:00:22.714Z,25.28
2024-04-06T11:02:52.929Z,25.27
2024-04-06T11:05:24.027Z,25.33
2024-04-06T11:07:54.260Z,25.38
2024-04-06T11:10:25.309Z,25.38
2024-04-06T11:12:57.861Z,25.36
2024-04-06T11:15:29.050Z,25.38
2024-04-06T11:18:00.380Z,25.38
2024-04-06T11:20:34.642Z,25.37
2024-04-06T11:23:05.429Z,25.36
2024-04-06T11:25:40.784Z,25.39
2024-04-06T11:28:11.083Z,25.40
2024-04-06T11:30:42.727Z,25.36
2024-04-06T11:33:12.907Z,25.27
2024-04-06T11:35:43.188Z,25.28
2024-04-06T11:38:13.514Z,25.30
2024-04-06T11:40:48.166Z,25.29
2024-04-06T11:43:18.557Z,25.32
2024-04-06T11:45:49.260Z,25.37
2024-04-06T11:48:19.727Z,25.39
2024-04-06T11:50:50.056Z,25.41
2024-04-06T11:53:20.294Z,25.38
2024-04-06T11:55:50.643Z,25.23
2024-04-06T11:58:20.903Z,25.14
2024-04-06T12:00:51.250Z,25.21
2024-04-06T12:03:21.751Z,25.29
2024-04-06T12:05:54.499Z,25.37
2024-04-06T12:08:26.161Z,25.39
2024-04-06T12:10:56.602Z,25.40
2024-04-06T12:13:26.781Z,25.41
2024-04-06T12:15:57.063Z,25.51
2024-04-06T12:18:28.039Z,25.57
2024-04-06T12:20:58.264Z,25.61
2024-04-06T12:23:29.124Z,25.64
2024-04-06T12:25:59.870Z,25.65
2024-04-06T12:28:30.398Z,25.66
2024-04-06T12:31:03.493Z,25.62
2024-04-06T12:33:32.456Z,25.57
2024-04-06T12:36:03.080Z,25.58
2024-04-06T12:38:33.658Z,25.59
2024-04-06T12:41:04.107Z,25.55
2024-04-06T12:43:34.372Z,25.55
2024-04-06T12:46:05.253Z,25.57
2024-04-06T12:48:36.324Z,25.56
2024-04-06T12:51:09.984Z,25.54
2024-04-06T12:53:41.127Z,25.55
2024-04-06T12:56:11.685Z,25.53
2024-04-06T12:58:42.962Z,25.53
2024-04-06T13:01:13.719Z,25.52
2024-04-06T13:03:52.714Z,25.51
2024-04-06T13:06:30.280Z,25.46
2024-04-06T13:09:00.749Z,25.43
2024-04-06T13:11:31.005Z,25.40
2024-04-06T13:14:01.249Z,25.36
2024-04-06T13:16:31.579Z,25.33
2024-04-06T13:19:01.818Z,25.29
2024-04-06T13:21:32.017Z,25.23
2024-04-06T13:24:02.700Z,25.20
2024-04-06T13:26:32.921Z,25.18
2024-04-06T13:29:05.086Z,25.18
2024-04-06T13:31:35.717Z,25.26
2024-04-06T13:34:07.572Z,25.35
2024-04-06T13:36:37.830Z,25.44
2024-04-06T13:39:08.916Z,25.51
2024-04-06T13:41:39.191Z,25.55
2024-04-06T13:44:09.477Z,25.53
2024-04-06T13:46:39.749Z,25.56
2024-04-06T13:49:11.850Z,25.56
2024-04-06T13:51:43.107Z,25.52
2024-04-06T13:54:13.430Z,25.51
2024-04-06T13:56:46.082Z,25.49
2024-04-06T13:59:16.608Z,25.49
2024-04-06T14:01:47.322Z,25.50
2024-04-06T14:04:18.770Z,25.53
2024-04-06T14:06:49.234Z,25.54
2024-04-06T14:09:20.000Z,25.54
2024-04-06T14:11:50.288Z,25.53
2024-04-06T14:14:23.247Z,25.51
2024-04-06T14:16:55.080Z,25.48
2024-04-06T14:19:27.071Z,25.44
2024-04-06T14:21:58.133Z,25.42
2024-04-06T14:24:28.469Z,25.39
2024-04-06T14:26:59.544Z,25.36
2024-04-06T14:29:29.875Z,25.34
2024-04-06T14:32:00.394Z,25.31
2024-04-06T14:34:30.603Z,25.28
2024-04-06T14:37:00.902Z,25.24
2024-04-06T14:39:31.164Z,25.21
2024-04-06T14:42:01.472Z,25.18
2024-04-06T14:44:31.889Z,25.14
2024-04-06T14:47:02.548Z,25.11
2024-04-06T14:49:32.763Z,25.08
2024-04-06T14:52:04.472Z,25.05
2024-04-06T14:54:34.816Z,25.03
2024-04-06T14:57:05.973Z,25.00
2024-04-06T14:59:36.216Z,24.98
2024-04-06T15:02:07.423Z,24.97
2024-04-06T15:04:38.134Z,24.95
2024-04-06T15:07:09.235Z,24.93
2024-04-06T15:09:40.687Z,24.91
2024-04-06T15:12:11.792Z,24.88
2024-04-06T15:14:42.066Z,24.85
2024-04-06T15:17:12.569Z,24.81
2024-04-06T15:19:44.011Z,24.78
2024-04-06T15:22:16.881Z,24.76
2024-04-06T15:24:47.848Z,24.73
2024-04-06T15:27:18.037Z,24.68
2024-04-06T15:29:48.285Z,24.66
2024-04-06T15:32:20.353Z,24.62
2024-04-06T15:34:50.613Z,24.60
2024-04-06T15:37:21.772Z,24.57
2024-04-06T15:39:51.999Z,24.54
2024-04-06T15:42:24.432Z,24.50
2024-04-06T15:44:54.694Z,24.48
2024-04-06T15:47:25.081Z,24.45
2024-04-06T15:49:55.247Z,24.43
2024-04-06T15:52:26.270Z,24.38
2024-04-06T15:54:56.677Z,24.33
2024-04-06T15:57:27.013Z,24.31
2024-04-06T15:59:57.679Z,24.28
2024-04-06T16:02:28.033Z,24.26
2024-04-06T16:04:58.512Z,24.22
2024-04-06T16:07:28.747Z,24.19
2024-04-06T16:09:59.068Z,24.13
2024-04-06T16:12:29.500Z,24.10
2024-04-06T16:14:59.795Z,24.07
2024-04-06T16:17:30.058Z,24.07
2024-04-06T16:20:00.394Z,24.06
2024-04-06T16:22:30.820Z,24.04
2024-04-06T16:25:01.174Z,24.02
2024-04-06T16:27:31.487Z,24.02
2024-04-06T16:30:01.876Z,24.06
2024-04-06T16:32:32.104Z,24.09
2024-04-06T16:35:02.302Z,24.08
2024-04-06T16:37:32.556Z,24.06
2024-04-06T16:40:05.445Z,24.05
2024-04-06T16:42:35.830Z,24.03
2024-04-06T16:45:07.562Z,24.00
2024-04-06T16:47:37.969Z,23.96
2024-04-06T16:50:09.099Z,23.92
2024-04-06T16:52:41.410Z,23.90
2024-04-06T16:55:11.971Z,23.90
2024-04-06T16:57:43.334Z,23.86
2024-04-06T17:00:16.296Z,23.82
2024-04-06T17:02:47.630Z,23.78
2024-04-06T17:05:22.176Z,23.71
2024-04-06T17:07:52.644Z,23.64
2024-04-06T17:10:23.256Z,23.56
2024-04-06T17:12:53.794Z,23.47
2024-04-06T17:15:24.140Z,23.39
2024-04-06T17:17:54.388Z,23.30
2024-04-06T17:20:26.301Z,23.21
2024-04-06T17:22:56.918Z,23.13
2024-04-06T17:25:27.231Z,23.06
2024-04-06T17:27:58.368Z,22.98
2024-04-06T17:30:28.654Z,22.88
2024-04-06T17:32:59.390Z,22.79
2024-04-06T17:35:30.402Z,22.71
2024-04-06T17:38:01.860Z,22.62
2024-04-06T17:40:32.245Z,22.51
2024-04-06T17:43:02.578Z,22.43
2024-04-06T17:45:33.009Z,22.34
2024-04-06T17:48:03.369Z,22.25
2024-04-06T17:50:33.858Z,22.18
2024-04-06T17:53:04.286Z,22.12
2024-04-06T17:55:34.535Z,22.06
2024-04-06T17:58:05.468Z,22.02
2024-04-06T18:00:35.806Z,21.97
2024-04-06T18:03:07.962Z,21.89
2024-04-06T18:05:38.266Z,21.82
2024-04-06T18:08:09.501Z,21.76
2024-04-06T18:10:40.844Z,21.68
2024-04-06T18:13:13.534Z,21.61
2024-04-06T18:15:44.684Z,21.54
2024-04-06T18:18:15.084Z,21.45
2024-04-06T18:20:47.043Z,21.37
2024-04-06T18:23:18.031Z,21.29
2024-04-06T18:25:48.295Z,21.20
2024-04-06T18:28:18.855Z,21.11
2024-04-06T18:30:49.166Z,21.03
2024-04-06T18:33:22.691Z,20.96
2024-04-06T18:35:54.647Z,20.90
2024-04-06T18:38:25.806Z,20.84
2024-04-06T18:40:56.330Z,20.78
2024-04-06T18:43:27.939Z,20.71
2024-04-06T18:45:58.454Z,20.64
2024-04-06T18:48:29.361Z,20.57
2024-04-06T18:50:59.728Z,20.49
2024-04-06T18:53:30.782Z,20.39
2024-04-06T18:56:02.164Z,20.31
2024-04-06T18:58:32.384Z,20.22
2024-04-06T19:01:03.172Z,20.15
2024-04-06T19:03:33.948Z,20.10
2024-04-06T19:06:05.000Z,20.07
2024-04-06T19:08:35.846Z,20.03
2024-04-06T19:11:06.690Z,20.01
2024-04-06T19:13:37.027Z,19.99
2024-04-06T19:16:08.667Z,19.97
2024-04-06T19:18:38.973Z,19.96
2024-04-06T19:21:09.299Z,19.95
2024-04-06T19:23:39.907Z,19.98
2024-04-06T19:26:10.306Z,20.00
2024-04-06T19:28:40.634Z,20.01
2024-04-06T19:31:12.241Z,20.03
2024-04-06T19:33:42.641Z,20.04
2024-04-06T19:36:16.056Z,20.04
2024-04-06T19:38:44.874Z,20.04
2024-04-06T19:41:15.448Z,20.04
2024-04-06T19:43:45.630Z,20.04
2024-04-06T19:46:16.197Z,20.03
2024-04-06T19:48:46.464Z,20.02
2024-04-06T19:51:16.761Z,20.02
2024-04-06T19:53:47.320Z,20.02
2024-04-06T19:56:17.542Z,20.01
2024-04-06T19:58:50.236Z,20.01
2024-04-06T20:01:20.986Z,20.01
2024-04-06T20:03:51.266Z,20.00
2024-04-06T20:06:21.534Z,19.99
2024-04-06T20:09:06.501Z,19.98
2024-04-06T20:11:37.073Z,19.93
2024-04-06T20:14:07.285Z,19.87
2024-04-06T20:16:37.600Z,19.81
2024-04-06T20:19:07.984Z,19.74
2024-04-06T20:21:38.794Z,19.70
2024-04-06T20:24:27.732Z,19.62
2024-04-06T20:26:58.126Z,19.54
2024-04-06T20:29:28.255Z,19.44
2024-04-06T20:31:59.301Z,19.34
2024-04-06T20:34:30.697Z,19.25
2024-04-06T20:37:07.582Z,19.17
2024-04-06T20:39:38.467Z,19.07
2024-04-06T20:42:08.989Z,18.99
2024-04-06T20:44:39.262Z,18.95
2024-04-06T20:47:09.525Z,18.92
2024-04-06T20:49:39.796Z,18.87
2024-04-06T20:52:12.593Z,18.82
2024-04-06T20:54:42.768Z,18.76
2024-04-06T20:57:12.938Z,18.72
2024-04-06T20:59:43.134Z,18.69
2024-04-06T21:02:13.358Z,18.68
2024-04-06T21:04:43.536Z,18.64
2024-04-06T21:07:13.820Z,18.61
2024-04-06T21:09:44.421Z,18.60
2024-04-06T21:12:14.978Z,18.62
2024-04-06T21:14:45.648Z,18.64
2024-04-06T21:17:15.971Z,18.67
2024-04-06T21:19:46.397Z,18.69
2024-04-06T21:22:16.658Z,18.68
2024-04-06T21:24:46.900Z,18.70
2024-04-06T21:27:17.244Z,18.71
2024-04-06T21:29:50.268Z,18.73
2024-04-06T21:32:22.408Z,18.73
2024-04-06T21:34:52.526Z,18.74
2024-04-06T21:37:22.667Z,18.75
2024-04-06T21:39:53.463Z,18.74
2024-04-06T21:42:23.703Z,18.73
2024-04-06T21:44:53.790Z,18.72
2024-04-06T21:47:24.268Z,18.71
2024-04-06T21:49:54.503Z,18.69
2024-04-06T21:52:24.704Z,18.67
2024-04-06T21:54:54.867Z,18.67
2024-04-06T21:57:25.537Z,18.66
2024-04-06T22:00:08.087Z,18.64
2024-04-06T22:02:43.388Z,18.61
2024-04-06T22:05:14.116Z,18.57
2024-04-06T22:07:44.353Z,18.52
2024-04-06T22:10:14.639Z,18.44
2024-04-06T22:12:44.886Z,18.37
2024-04-06T22:15:15.514Z,18.30
2024-04-06T22:17:45.786Z,18.23
2024-04-06T22:20:16.078Z,18.13
2024-04-06T22:22:46.508Z,18.00
2024-04-06T22:25:16.736Z,17.90
2024-04-06T22:27:47.044Z,17.81
2024-04-06T22:30:17.564Z,17.69
2024-04-06T22:32:47.689Z,17.63
2024-04-06T22:35:18.200Z,17.60
2024-04-06T22:37:48.359Z,17.53
2024-04-06T22:40:22.222Z,17.46
2024-04-06T22:42:52.377Z,17.39
2024-04-06T22:45:22.506Z,17.34
2024-04-06T22:47:52.693Z,17.33
2024-04-06T22:50:23.209Z,17.31
2024-04-06T22:52:53.433Z,17.30
2024-04-06T22:55:23.670Z,17.24
2024-04-06T22:57:53.813Z,17.19
2024-04-06T23:00:24.343Z,17.16
2024-04-06T23:02:54.539Z,17.16
2024-04-06T23:05:24.760Z,17.16
2024-04-06T23:07:54.966Z,17.14
2024-04-06T23:10:25.235Z,17.09
2024-04-06T23:12:55.543Z,16.99
2024-04-06T23:15:25.669Z,16.91
2024-04-06T23:17:55.871Z,16.89
2024-04-06T23:20:26.930Z,16.83
2024-04-06T23:22:57.218Z,16.78
2024-04-06T23:25:27.748Z,16.65
2024-04-06T23:27:57.938Z,16.56
2024-04-06T23:30:28.124Z,16.55
2024-04-06T23:32:58.421Z,16.56
2024-04-06T23:35:29.147Z,16.55
2024-04-06T23:37:59.384Z,16.50
2024-04-06T23:40:29.635Z,16.43
2024-04-06T23:43:00.332Z,16.38
2024-04-06T23:45:30.482Z,16.32
2024-04-06T23:48:00.679Z,16.30
2024-04-06T23:50:31.339Z,16.29
2024-04-06T23:53:02.083Z,16.31
2024-04-06T23:55:32.487Z,16.27
2024-04-06T23:58:03.511Z,16.21
